createdAt,value
2019-03-31T00:00:36.078Z,67.88
2019-03-31T00:01:36.018Z,68.84
2019-03-31T00:02:36.013Z,68.73
2019-03-31T00:03:35.988Z,68.32
2019-03-31T00:04:35.987Z,68.70
2019-03-31T00:05:37.472Z,68.73
2019-03-31T00:06:35.959Z,68.70
2019-03-31T00:07:35.947Z,68.63
2019-03-31T00:08:35.945Z,69.14
2019-03-31T00:09:35.929Z,69.04
2019-03-31T00:10:35.953Z,68.63
2019-03-31T00:11:35.915Z,68.52
2019-03-31T00:12:35.892Z,69.04
2019-03-31T00:13:35.893Z,69.14
2019-03-31T00:14:35.877Z,69.34
2019-03-31T00:15:35.863Z,69.34
2019-03-31T00:16:35.875Z,69.68
2019-03-31T00:17:35.843Z,70.40
2019-03-31T00:18:35.829Z,69.89
2019-03-31T00:19:35.818Z,69.99
2019-03-31T00:20:35.807Z,70.29
2019-03-31T00:21:35.835Z,70.64
2019-03-31T00:22:35.788Z,70.94
2019-03-31T00:23:35.775Z,70.84
2019-03-31T00:24:35.813Z,70.94
2019-03-31T00:25:35.780Z,71.15
2019-03-31T00:26:35.745Z,71.56
2019-03-31T00:27:35.770Z,71.56
2019-03-31T00:28:35.725Z,70.94
2019-03-31T00:29:35.712Z,71.15
2019-03-31T00:30:35.703Z,70.74
2019-03-31T00:31:35.730Z,70.64
2019-03-31T00:32:35.678Z,70.74
2019-03-31T00:33:35.712Z,70.43
2019-03-31T00:34:35.656Z,70.64
2019-03-31T00:35:35.646Z,70.84
2019-03-31T00:36:35.634Z,70.74
2019-03-31T00:37:35.623Z,70.61
2019-03-31T00:38:35.640Z,70.53
2019-03-31T00:39:35.602Z,70.61
2019-03-31T00:40:35.594Z,70.84
2019-03-31T00:41:35.580Z,71.04
2019-03-31T00:42:35.568Z,71.25
2019-03-31T00:43:35.597Z,70.84
2019-03-31T00:44:35.547Z,70.94
2019-03-31T00:45:35.535Z,70.94
2019-03-31T00:46:35.525Z,71.15
2019-03-31T00:47:35.515Z,70.64
2019-03-31T00:48:35.507Z,70.71
2019-03-31T00:49:35.529Z,70.91
2019-03-31T00:50:35.481Z,70.74
2019-03-31T00:51:35.488Z,70.74
2019-03-31T00:52:35.461Z,71.36
2019-03-31T00:53:35.448Z,71.22
2019-03-31T00:54:35.444Z,71.15
2019-03-31T00:55:35.451Z,71.56
2019-03-31T00:56:35.419Z,70.74
2019-03-31T00:57:35.410Z,71.01
2019-03-31T00:58:35.391Z,71.22
2019-03-31T00:59:35.382Z,71.25
2019-03-31T01:00:35.394Z,71.04
2019-03-31T01:01:36.794Z,71.45
2019-03-31T01:02:35.350Z,70.84
2019-03-31T01:03:35.336Z,71.25
2019-03-31T01:04:35.326Z,71.04
2019-03-31T01:05:35.342Z,71.45
2019-03-31T01:06:35.310Z,71.56
2019-03-31T01:07:35.292Z,71.25
2019-03-31T01:08:35.282Z,71.45
2019-03-31T01:09:35.279Z,71.77
2019-03-31T01:10:35.287Z,71.04
2019-03-31T01:11:35.250Z,70.50
2019-03-31T01:12:35.242Z,70.74
2019-03-31T01:13:35.230Z,70.71
2019-03-31T01:14:35.216Z,70.94
2019-03-31T01:15:35.243Z,71.32
2019-03-31T01:16:35.195Z,70.50
2019-03-31T01:17:35.183Z,70.50
2019-03-31T01:18:35.173Z,70.40
2019-03-31T01:19:35.161Z,70.61
2019-03-31T01:20:35.149Z,71.01
2019-03-31T01:21:35.177Z,70.81
2019-03-31T01:22:35.129Z,70.09
2019-03-31T01:23:35.119Z,70.20
2019-03-31T01:24:35.107Z,70.06
2019-03-31T01:25:35.100Z,69.75
2019-03-31T01:26:35.085Z,69.75
2019-03-31T01:27:35.113Z,69.96
2019-03-31T01:28:35.066Z,69.65
2019-03-31T01:29:35.054Z,69.31
2019-03-31T01:30:35.042Z,69.45
2019-03-31T01:31:35.031Z,69.45
2019-03-31T01:32:35.021Z,69.31
2019-03-31T01:33:35.051Z,69.42
2019-03-31T01:34:35.001Z,69.11
2019-03-31T01:35:34.990Z,69.01
2019-03-31T01:36:34.982Z,69.11
2019-03-31T01:37:34.978Z,69.11
2019-03-31T01:38:34.956Z,69.21
2019-03-31T01:39:34.983Z,69.11
2019-03-31T01:40:34.933Z,69.82
2019-03-31T01:41:34.923Z,69.31
2019-03-31T01:42:34.911Z,68.90
2019-03-31T01:43:34.902Z,68.70
2019-03-31T01:44:34.892Z,69.31
2019-03-31T01:45:34.907Z,69.11
2019-03-31T01:46:34.870Z,69.21
2019-03-31T01:47:34.862Z,69.11
2019-03-31T01:48:34.848Z,69.11
2019-03-31T01:49:34.836Z,69.11
2019-03-31T01:50:34.850Z,69.31
2019-03-31T01:51:34.813Z,69.62
2019-03-31T01:52:34.805Z,69.62
2019-03-31T01:53:34.793Z,69.52
2019-03-31T01:54:34.781Z,69.62
2019-03-31T01:55:34.814Z,69.52
2019-03-31T01:56:34.761Z,69.52
2019-03-31T01:57:34.747Z,69.72
2019-03-31T01:58:34.738Z,69.82
2019-03-31T01:59:34.727Z,69.93
2019-03-31T02:00:34.716Z,70.23
2019-03-31T02:01:34.744Z,69.75
2019-03-31T02:02:34.693Z,69.72
2019-03-31T02:03:34.688Z,69.65
2019-03-31T02:04:34.672Z,69.55
2019-03-31T02:05:34.664Z,70.06
2019-03-31T02:06:34.649Z,69.96
2019-03-31T02:07:34.674Z,70.16
2019-03-31T02:08:34.702Z,70.16
2019-03-31T02:09:34.615Z,70.16
2019-03-31T02:10:34.606Z,70.16
2019-03-31T02:11:34.595Z,70.26
2019-03-31T02:12:34.585Z,70.78
2019-03-31T02:13:34.612Z,70.67
2019-03-31T02:14:34.559Z,70.26
2019-03-31T02:15:34.550Z,70.57
2019-03-31T02:16:34.539Z,70.47
2019-03-31T02:17:34.531Z,70.26
2019-03-31T02:18:34.516Z,70.57
2019-03-31T02:19:34.530Z,70.78
2019-03-31T02:20:34.494Z,70.98
2019-03-31T02:21:34.483Z,70.67
2019-03-31T02:22:34.473Z,70.88
2019-03-31T02:23:34.461Z,71.32
2019-03-31T02:24:34.488Z,71.01
2019-03-31T02:25:34.439Z,71.12
2019-03-31T02:26:34.429Z,71.12
2019-03-31T02:27:34.420Z,71.32
2019-03-31T02:28:34.406Z,71.53
2019-03-31T02:29:34.396Z,71.62
2019-03-31T02:30:34.425Z,71.53
2019-03-31T02:31:34.374Z,71.83
2019-03-31T02:32:34.364Z,71.62
2019-03-31T02:33:34.351Z,71.62
2019-03-31T02:34:34.340Z,71.83
2019-03-31T02:35:34.332Z,71.83
2019-03-31T02:36:34.358Z,71.73
2019-03-31T02:37:34.309Z,70.81
2019-03-31T02:38:34.297Z,71.73
2019-03-31T02:39:34.287Z,71.83
2019-03-31T02:40:34.278Z,71.94
2019-03-31T02:41:34.263Z,71.62
2019-03-31T02:42:34.294Z,71.73
2019-03-31T02:43:34.257Z,71.42
2019-03-31T02:44:34.230Z,71.22
2019-03-31T02:45:34.221Z,71.45
2019-03-31T02:46:34.208Z,72.24
2019-03-31T02:47:34.199Z,72.04
2019-03-31T02:48:34.212Z,71.25
2019-03-31T02:49:34.177Z,71.97
2019-03-31T02:50:34.161Z,71.86
2019-03-31T02:51:34.157Z,72.28
2019-03-31T02:52:34.144Z,72.28
2019-03-31T02:53:34.156Z,72.07
2019-03-31T02:54:34.121Z,71.97
2019-03-31T02:55:34.109Z,72.48
2019-03-31T02:56:34.127Z,72.38
2019-03-31T02:57:34.086Z,72.69
2019-03-31T02:58:34.112Z,72.48
2019-03-31T02:59:34.068Z,72.48
2019-03-31T03:00:34.057Z,72.48
2019-03-31T03:01:34.046Z,72.69
2019-03-31T03:02:42.050Z,72.48
2019-03-31T03:03:35.054Z,72.58
2019-03-31T03:04:34.012Z,72.48
2019-03-31T03:05:33.998Z,72.11
2019-03-31T03:06:33.991Z,72.11
2019-03-31T03:07:33.976Z,72.72
2019-03-31T03:08:33.966Z,73.10
2019-03-31T03:09:33.979Z,73.10
2019-03-31T03:10:34.011Z,73.44
2019-03-31T03:11:33.951Z,73.64
2019-03-31T03:12:33.922Z,73.54
2019-03-31T03:13:33.912Z,73.54
2019-03-31T03:14:33.923Z,73.78
2019-03-31T03:15:33.904Z,73.95
2019-03-31T03:16:33.879Z,74.05
2019-03-31T03:17:33.867Z,74.26
2019-03-31T03:18:33.855Z,74.05
2019-03-31T03:19:33.909Z,74.15
2019-03-31T03:20:33.849Z,73.95
2019-03-31T03:21:33.864Z,73.88
2019-03-31T03:22:33.818Z,73.88
2019-03-31T03:23:33.809Z,74.19
2019-03-31T03:24:33.794Z,74.60
2019-03-31T03:25:33.940Z,74.90
2019-03-31T03:26:33.780Z,75.35
2019-03-31T03:27:33.760Z,75.56
2019-03-31T03:28:33.751Z,74.94
2019-03-31T03:29:33.736Z,74.84
2019-03-31T03:30:33.872Z,75.15
2019-03-31T03:31:33.724Z,75.86
2019-03-31T03:32:33.704Z,75.62
2019-03-31T03:33:33.701Z,75.56
2019-03-31T03:34:33.942Z,75.56
2019-03-31T03:35:33.673Z,75.24
2019-03-31T03:36:33.687Z,75.56
2019-03-31T03:37:33.650Z,75.24
2019-03-31T03:38:33.639Z,75.15
2019-03-31T03:39:33.629Z,75.24
2019-03-31T03:40:33.628Z,74.94
2019-03-31T03:41:33.647Z,75.35
2019-03-31T03:42:33.599Z,75.35
2019-03-31T03:43:33.588Z,74.84
2019-03-31T03:44:33.575Z,75.35
2019-03-31T03:45:33.566Z,75.45
2019-03-31T03:46:33.556Z,75.66
2019-03-31T03:47:33.574Z,75.56
2019-03-31T03:48:33.539Z,75.59
2019-03-31T03:49:33.523Z,75.45
2019-03-31T03:50:33.513Z,75.45
2019-03-31T03:51:33.500Z,75.59
2019-03-31T03:52:33.674Z,75.45
2019-03-31T03:53:33.481Z,75.45
2019-03-31T03:54:33.478Z,75.90
2019-03-31T03:55:33.461Z,76.37
2019-03-31T03:56:33.449Z,75.96
2019-03-31T03:57:33.448Z,76.00
2019-03-31T03:58:33.452Z,76.37
2019-03-31T03:59:33.425Z,76.00
2019-03-31T04:00:33.407Z,76.82
2019-03-31T04:01:33.416Z,76.62
2019-03-31T04:02:33.524Z,76.82
2019-03-31T04:03:33.415Z,76.72
2019-03-31T04:04:33.369Z,76.72
2019-03-31T04:05:33.354Z,76.62
2019-03-31T04:06:33.344Z,76.62
2019-03-31T04:07:33.344Z,76.31
2019-03-31T04:08:33.323Z,76.82
2019-03-31T04:09:33.337Z,76.82
2019-03-31T04:10:33.300Z,76.62
2019-03-31T04:11:33.290Z,76.41
2019-03-31T04:12:33.282Z,77.03
2019-03-31T04:13:33.270Z,77.13
2019-03-31T04:14:33.286Z,77.13
2019-03-31T04:15:33.249Z,76.92
2019-03-31T04:16:33.236Z,76.92
2019-03-31T04:17:33.226Z,76.62
2019-03-31T04:18:33.222Z,76.86
2019-03-31T04:19:33.241Z,77.17
2019-03-31T04:20:33.211Z,76.96
2019-03-31T04:21:33.184Z,77.17
2019-03-31T04:22:33.174Z,77.06
2019-03-31T04:23:33.168Z,77.06
2019-03-31T04:24:33.163Z,76.96
2019-03-31T04:25:33.169Z,76.96
2019-03-31T04:26:33.137Z,76.86
2019-03-31T04:27:33.117Z,76.86
2019-03-31T04:28:33.126Z,77.17
2019-03-31T04:29:33.099Z,76.75
2019-03-31T04:30:33.123Z,77.17
2019-03-31T04:31:33.078Z,77.37
2019-03-31T04:32:33.066Z,76.89
2019-03-31T04:33:49.464Z,77.47
2019-03-31T04:34:34.042Z,77.51
2019-03-31T04:35:33.032Z,77.26
2019-03-31T04:36:33.053Z,77.51
2019-03-31T04:37:33.019Z,77.61
2019-03-31T04:38:32.999Z,77.61
2019-03-31T04:39:32.987Z,77.92
2019-03-31T04:40:32.978Z,77.81
2019-03-31T04:41:33.002Z,78.02
2019-03-31T04:42:32.955Z,78.23
2019-03-31T04:43:32.944Z,78.43
2019-03-31T04:44:32.941Z,78.57
2019-03-31T04:45:32.923Z,78.43
2019-03-31T04:46:32.910Z,78.47
2019-03-31T04:47:32.924Z,78.57
2019-03-31T04:48:32.889Z,78.53
2019-03-31T04:49:32.880Z,78.78
2019-03-31T04:50:32.867Z,78.88
2019-03-31T04:51:32.857Z,78.98
2019-03-31T04:52:32.873Z,78.94
2019-03-31T04:53:32.836Z,79.08
2019-03-31T04:54:32.823Z,79.08
2019-03-31T04:55:32.812Z,79.29
2019-03-31T04:56:32.800Z,79.08
2019-03-31T04:57:32.824Z,78.98
2019-03-31T04:58:32.778Z,79.08
2019-03-31T04:59:32.768Z,79.08
2019-03-31T05:00:32.757Z,79.19
2019-03-31T05:01:32.750Z,79.29
2019-03-31T05:02:32.735Z,79.49
2019-03-31T05:03:32.750Z,79.43
2019-03-31T05:04:32.715Z,79.29
2019-03-31T05:05:32.703Z,79.29
2019-03-31T05:06:32.691Z,79.70
2019-03-31T05:07:32.681Z,79.39
2019-03-31T05:08:32.708Z,79.74
2019-03-31T05:09:32.659Z,80.15
2019-03-31T05:10:32.649Z,79.70
2019-03-31T05:11:32.638Z,80.05
2019-03-31T05:12:32.627Z,80.15
2019-03-31T05:13:32.615Z,80.05
2019-03-31T05:14:32.629Z,79.94
2019-03-31T05:15:32.594Z,79.80
2019-03-31T05:16:32.583Z,80.01
2019-03-31T05:17:35.605Z,79.80
2019-03-31T05:18:32.561Z,79.84
2019-03-31T05:19:32.578Z,79.80
2019-03-31T05:20:32.539Z,80.21
2019-03-31T05:21:32.528Z,80.05
2019-03-31T05:22:32.520Z,80.11
2019-03-31T05:23:32.506Z,80.01
2019-03-31T05:24:32.521Z,79.74
2019-03-31T05:25:32.483Z,79.74
2019-03-31T05:26:32.473Z,80.01
2019-03-31T05:27:32.462Z,79.80
2019-03-31T05:28:32.451Z,79.39
2019-03-31T05:29:32.477Z,79.60
2019-03-31T05:30:32.428Z,79.60
2019-03-31T05:31:32.417Z,79.70
2019-03-31T05:32:32.407Z,79.60
2019-03-31T05:33:32.395Z,79.74
2019-03-31T05:34:32.387Z,80.21
2019-03-31T05:35:32.397Z,79.60
2019-03-31T05:36:32.365Z,80.11
2019-03-31T05:37:32.351Z,79.49
2019-03-31T05:38:32.340Z,79.60
2019-03-31T05:39:32.332Z,79.49
2019-03-31T05:40:32.348Z,79.39
2019-03-31T05:41:32.309Z,79.33
2019-03-31T05:42:32.295Z,79.39
2019-03-31T05:43:32.287Z,79.29
2019-03-31T05:44:32.276Z,79.39
2019-03-31T05:45:32.300Z,79.39
2019-03-31T05:46:32.251Z,79.60
2019-03-31T05:47:32.241Z,79.49
2019-03-31T05:48:32.232Z,79.39
2019-03-31T05:49:32.221Z,79.33
2019-03-31T05:50:32.207Z,79.22
2019-03-31T05:51:32.224Z,79.22
2019-03-31T05:52:32.187Z,79.84
2019-03-31T05:53:32.176Z,79.74
2019-03-31T05:54:32.166Z,79.84
2019-03-31T05:55:32.156Z,79.74
2019-03-31T05:56:32.182Z,80.05
2019-03-31T05:57:32.139Z,79.63
2019-03-31T05:58:32.118Z,80.05
2019-03-31T05:59:32.108Z,79.84
2019-03-31T06:00:32.099Z,80.15
2019-03-31T06:01:32.088Z,79.63
2019-03-31T06:02:32.099Z,80.05
2019-03-31T06:03:32.066Z,79.80
2019-03-31T06:04:33.515Z,79.43
2019-03-31T06:05:32.042Z,79.43
2019-03-31T06:06:32.032Z,79.53
2019-03-31T06:07:32.048Z,79.74
2019-03-31T06:08:32.012Z,79.22
2019-03-31T06:09:31.999Z,79.74
2019-03-31T06:10:31.988Z,79.63
2019-03-31T06:11:31.977Z,79.22
2019-03-31T06:12:31.990Z,78.61
2019-03-31T06:13:31.957Z,78.61
2019-03-31T06:14:31.945Z,78.71
2019-03-31T06:15:31.961Z,78.54
2019-03-31T06:16:31.922Z,78.54
2019-03-31T06:17:31.946Z,78.75
2019-03-31T06:18:31.899Z,78.44
2019-03-31T06:19:31.888Z,78.54
2019-03-31T06:20:31.877Z,78.54
2019-03-31T06:21:31.866Z,78.54
2019-03-31T06:22:31.854Z,78.54
2019-03-31T06:23:31.871Z,78.44
2019-03-31T06:24:31.833Z,78.23
2019-03-31T06:25:31.859Z,78.23
2019-03-31T06:26:31.819Z,78.23
2019-03-31T06:27:31.801Z,78.09
2019-03-31T06:28:31.792Z,77.89
2019-03-31T06:29:31.783Z,77.37
2019-03-31T06:30:31.767Z,77.17
2019-03-31T06:31:31.781Z,77.37
2019-03-31T06:32:31.745Z,77.58
2019-03-31T06:33:31.735Z,77.06
2019-03-31T06:34:31.724Z,77.17
2019-03-31T06:35:31.714Z,77.37
2019-03-31T06:36:31.725Z,76.72
2019-03-31T06:37:31.691Z,76.72
2019-03-31T06:38:31.680Z,77.03
2019-03-31T06:39:34.234Z,76.93
2019-03-31T06:40:31.659Z,76.51
2019-03-31T06:41:31.682Z,76.10
2019-03-31T06:42:31.639Z,76.10
2019-03-31T06:43:31.625Z,76.62
2019-03-31T06:44:31.613Z,76.10
2019-03-31T06:45:31.603Z,76.62
2019-03-31T06:46:31.594Z,76.17
2019-03-31T06:47:31.619Z,76.07
2019-03-31T06:48:31.570Z,76.28
2019-03-31T06:49:31.561Z,75.56
2019-03-31T06:50:31.550Z,75.62
2019-03-31T06:51:31.540Z,75.52
2019-03-31T06:52:31.527Z,75.45
2019-03-31T06:53:31.647Z,76.17
2019-03-31T06:54:31.506Z,75.56
2019-03-31T06:55:31.495Z,74.91
2019-03-31T06:56:31.485Z,75.35
2019-03-31T06:57:31.472Z,75.35
2019-03-31T06:58:31.486Z,75.52
2019-03-31T06:59:31.481Z,75.52
2019-03-31T07:00:31.440Z,75.21
2019-03-31T07:01:31.434Z,74.60
2019-03-31T07:02:31.421Z,74.49
2019-03-31T07:03:31.445Z,73.95
2019-03-31T07:04:31.401Z,74.15
2019-03-31T07:05:31.427Z,74.15
2019-03-31T07:06:31.381Z,73.61
2019-03-31T07:07:31.368Z,73.54
2019-03-31T07:08:31.410Z,72.51
2019-03-31T07:09:31.386Z,72.61
2019-03-31T07:10:31.393Z,72.20
2019-03-31T07:11:31.382Z,72.41
2019-03-31T07:12:31.317Z,72.41
2019-03-31T07:13:31.305Z,71.04
2019-03-31T07:14:31.294Z,72.00
2019-03-31T07:15:31.307Z,71.90
2019-03-31T07:16:31.272Z,72.07
2019-03-31T07:17:31.264Z,71.86
2019-03-31T07:18:31.252Z,71.66
2019-03-31T07:19:31.240Z,71.25
2019-03-31T07:20:31.254Z,70.94
2019-03-31T07:21:31.222Z,70.64
2019-03-31T07:22:31.210Z,70.32
2019-03-31T07:23:31.199Z,70.53
2019-03-31T07:24:31.188Z,70.94
2019-03-31T07:25:31.202Z,70.43
2019-03-31T07:26:31.191Z,70.43
2019-03-31T07:27:31.198Z,70.22
2019-03-31T07:28:31.149Z,70.84
2019-03-31T07:29:31.135Z,70.94
2019-03-31T07:30:31.152Z,70.43
2019-03-31T07:31:31.114Z,70.29
2019-03-31T07:32:31.103Z,70.19
2019-03-31T07:33:31.091Z,69.98
2019-03-31T07:34:31.082Z,69.78
2019-03-31T07:35:31.093Z,70.22
2019-03-31T07:36:31.064Z,70.22
2019-03-31T07:37:31.048Z,69.98
2019-03-31T07:38:38.880Z,69.89
2019-03-31T07:39:32.206Z,69.98
2019-03-31T07:40:31.424Z,70.40
2019-03-31T07:41:31.126Z,70.09
2019-03-31T07:42:31.067Z,69.54
2019-03-31T07:43:30.984Z,69.34
2019-03-31T07:44:31.016Z,69.54
2019-03-31T07:45:30.995Z,69.13
2019-03-31T07:46:30.951Z,69.44
2019-03-31T07:47:30.943Z,69.03
2019-03-31T07:48:30.934Z,69.03
2019-03-31T07:49:30.916Z,69.24
2019-03-31T07:50:30.907Z,69.13
2019-03-31T07:51:30.922Z,68.73
2019-03-31T07:52:30.885Z,69.34
2019-03-31T07:53:30.876Z,69.03
2019-03-31T07:54:30.862Z,69.00
2019-03-31T07:55:30.931Z,69.00
2019-03-31T07:56:30.877Z,68.83
2019-03-31T07:57:30.836Z,68.52
2019-03-31T07:58:30.818Z,68.38
2019-03-31T07:59:30.859Z,68.08
2019-03-31T08:00:30.798Z,68.52
2019-03-31T08:01:30.822Z,68.79
2019-03-31T08:02:30.775Z,68.79
2019-03-31T08:03:30.765Z,69.31
2019-03-31T08:04:30.754Z,68.69
2019-03-31T08:05:33.417Z,68.18
2019-03-31T08:06:30.733Z,68.01
2019-03-31T08:07:30.760Z,68.18
2019-03-31T08:08:30.710Z,69.03
2019-03-31T08:09:30.701Z,69.03
2019-03-31T08:10:30.690Z,69.03
2019-03-31T08:11:30.680Z,68.93
2019-03-31T08:12:30.669Z,69.24
2019-03-31T08:13:30.679Z,68.83
2019-03-31T08:14:30.650Z,68.83
2019-03-31T08:15:30.635Z,69.24
2019-03-31T08:16:30.627Z,68.83
2019-03-31T08:17:30.614Z,69.00
2019-03-31T08:18:30.627Z,68.73
2019-03-31T08:19:30.592Z,67.77
2019-03-31T08:20:30.579Z,68.08
2019-03-31T08:21:30.569Z,68.49
2019-03-31T08:22:30.559Z,67.26
2019-03-31T08:23:30.572Z,67.13
2019-03-31T08:24:30.536Z,66.54
2019-03-31T08:25:30.530Z,66.75
2019-03-31T08:26:30.514Z,66.75
2019-03-31T08:27:30.505Z,66.95
2019-03-31T08:28:30.529Z,67.05
2019-03-31T08:29:30.482Z,66.75
2019-03-31T08:30:30.477Z,66.75
2019-03-31T08:31:30.460Z,67.05
2019-03-31T08:32:30.450Z,66.75
2019-03-31T08:33:30.441Z,66.54
2019-03-31T08:34:30.455Z,66.54
2019-03-31T08:35:30.421Z,66.75
2019-03-31T08:36:30.408Z,66.44
2019-03-31T08:37:30.395Z,66.64
2019-03-31T08:38:30.385Z,66.34
2019-03-31T08:39:30.411Z,66.44
2019-03-31T08:40:30.370Z,65.01
2019-03-31T08:41:30.373Z,65.31
2019-03-31T08:42:30.342Z,66.03
2019-03-31T08:43:30.331Z,64.57
2019-03-31T08:44:30.330Z,65.18
2019-03-31T08:45:30.660Z,64.43
2019-03-31T08:46:30.299Z,64.54
2019-03-31T08:47:30.292Z,64.51
2019-03-31T08:48:30.282Z,64.61
2019-03-31T08:49:30.270Z,64.78
2019-03-31T08:50:30.279Z,64.30
2019-03-31T08:51:30.261Z,64.68
2019-03-31T08:52:30.239Z,64.58
2019-03-31T08:53:30.232Z,64.61
2019-03-31T08:54:30.214Z,64.54
2019-03-31T08:55:30.226Z,64.95
2019-03-31T08:56:30.193Z,65.77
2019-03-31T08:57:30.181Z,65.18
2019-03-31T08:58:30.226Z,64.54
2019-03-31T08:59:30.186Z,65.87
2019-03-31T09:00:30.174Z,65.77
2019-03-31T09:01:30.138Z,65.36
2019-03-31T09:02:30.128Z,64.81
2019-03-31T09:03:30.115Z,64.61
2019-03-31T09:04:30.108Z,64.40
2019-03-31T09:05:30.119Z,64.48
2019-03-31T09:06:30.083Z,63.56
2019-03-31T09:07:30.075Z,62.95
2019-03-31T09:08:30.062Z,62.63
2019-03-31T09:09:30.051Z,63.35
2019-03-31T09:10:30.074Z,63.59
2019-03-31T09:11:30.030Z,63.89
2019-03-31T09:12:30.017Z,64.30
2019-03-31T09:13:30.010Z,64.40
2019-03-31T09:14:29.995Z,64.74
2019-03-31T09:15:30.026Z,65.05
2019-03-31T09:16:29.974Z,64.74
2019-03-31T09:17:29.964Z,65.05
2019-03-31T09:18:29.960Z,64.84
2019-03-31T09:19:29.943Z,64.74
2019-03-31T09:20:29.930Z,64.64
2019-03-31T09:21:29.955Z,65.05
2019-03-31T09:22:29.909Z,64.64
2019-03-31T09:23:29.898Z,64.84
2019-03-31T09:24:29.888Z,64.74
2019-03-31T09:25:29.877Z,64.54
2019-03-31T09:26:29.865Z,65.25
2019-03-31T09:27:29.882Z,64.95
2019-03-31T09:28:29.846Z,66.38
2019-03-31T09:29:29.833Z,66.89
2019-03-31T09:30:29.864Z,66.17
2019-03-31T09:31:29.813Z,66.28
2019-03-31T09:32:29.837Z,66.51
2019-03-31T09:33:29.795Z,66.92
2019-03-31T09:34:29.779Z,67.13
2019-03-31T09:35:29.802Z,67.97
2019-03-31T09:36:29.758Z,68.59
2019-03-31T09:37:29.745Z,68.41
2019-03-31T09:38:29.762Z,68.79
2019-03-31T09:39:29.726Z,68.93
2019-03-31T09:40:29.717Z,69.13
2019-03-31T09:41:29.703Z,69.03
2019-03-31T09:42:29.697Z,68.93
2019-03-31T09:43:29.718Z,69.24
2019-03-31T09:44:30.410Z,69.34
2019-03-31T09:45:29.662Z,69.34
2019-03-31T09:46:29.651Z,69.10
2019-03-31T09:47:29.640Z,69.54
2019-03-31T09:48:29.629Z,69.75
2019-03-31T09:49:29.654Z,69.85
2019-03-31T09:50:29.612Z,69.95
2019-03-31T09:51:29.595Z,69.75
2019-03-31T09:52:29.585Z,69.13
2019-03-31T09:53:29.575Z,69.13
2019-03-31T09:54:29.565Z,69.03
2019-03-31T09:55:29.580Z,69.13
2019-03-31T09:56:29.544Z,69.03
2019-03-31T09:57:29.534Z,68.93
2019-03-31T09:58:29.523Z,68.49
2019-03-31T09:59:29.511Z,68.08
2019-03-31T10:00:29.525Z,68.35
2019-03-31T10:01:29.489Z,67.64
2019-03-31T10:02:29.480Z,67.02
2019-03-31T10:03:29.473Z,66.41
2019-03-31T10:04:29.457Z,66.72
2019-03-31T10:05:29.470Z,66.61
2019-03-31T10:06:30.741Z,66.38
2019-03-31T10:07:29.426Z,66.38
2019-03-31T10:08:29.416Z,66.28
2019-03-31T10:09:29.408Z,65.02
2019-03-31T10:10:29.419Z,65.12
2019-03-31T10:11:29.383Z,64.61
2019-03-31T10:12:29.373Z,63.76
2019-03-31T10:13:29.361Z,63.45
2019-03-31T10:14:29.350Z,62.84
2019-03-31T10:15:29.377Z,63.12
2019-03-31T10:16:29.328Z,62.92
2019-03-31T10:17:29.316Z,63.02
2019-03-31T10:18:29.307Z,62.51
2019-03-31T10:19:29.296Z,62.81
2019-03-31T10:20:31.421Z,62.92
2019-03-31T10:21:29.357Z,62.81
2019-03-31T10:22:29.264Z,63.22
2019-03-31T10:23:29.254Z,63.12
2019-03-31T10:24:29.241Z,63.02
2019-03-31T10:25:29.230Z,62.92
2019-03-31T10:26:32.339Z,62.51
2019-03-31T10:27:29.233Z,62.51
2019-03-31T10:28:29.198Z,62.51
2019-03-31T10:29:29.190Z,62.40
2019-03-31T10:30:29.174Z,60.97
2019-03-31T10:31:29.163Z,60.46
2019-03-31T10:32:29.177Z,59.55
2019-03-31T10:33:29.142Z,60.05
2019-03-31T10:34:29.130Z,59.55
2019-03-31T10:35:29.121Z,59.31
2019-03-31T10:36:29.110Z,59.92
2019-03-31T10:37:29.137Z,57.68
2019-03-31T10:38:29.088Z,56.56
2019-03-31T10:39:29.078Z,56.35
2019-03-31T10:40:29.067Z,56.66
2019-03-31T10:41:31.008Z,57.37
2019-03-31T10:42:29.063Z,56.35
2019-03-31T10:43:29.060Z,56.27
2019-03-31T10:44:29.028Z,56.17
2019-03-31T10:45:29.013Z,56.40
2019-03-31T10:46:29.004Z,56.71
2019-03-31T10:47:28.993Z,57.22
2019-03-31T10:48:29.008Z,57.35
2019-03-31T10:49:28.970Z,57.32
2019-03-31T10:50:28.961Z,57.84
2019-03-31T10:51:28.953Z,57.25
2019-03-31T10:52:28.938Z,57.63
2019-03-31T10:53:28.965Z,57.32
2019-03-31T10:54:28.920Z,56.71
2019-03-31T10:55:28.910Z,57.43
2019-03-31T10:56:28.896Z,56.51
2019-03-31T10:57:28.885Z,56.92
2019-03-31T10:58:28.874Z,56.81
2019-03-31T10:59:28.887Z,56.58
2019-03-31T11:00:28.853Z,56.48
2019-03-31T11:01:28.842Z,56.35
2019-03-31T11:02:28.832Z,55.61
2019-03-31T11:03:28.825Z,54.57
2019-03-31T11:04:28.836Z,53.90
2019-03-31T11:05:28.808Z,52.76
2019-03-31T11:06:28.790Z,51.74
2019-03-31T11:07:28.780Z,50.52
2019-03-31T11:08:28.767Z,50.19
2019-03-31T11:09:28.781Z,50.54
2019-03-31T11:10:28.746Z,51.35
2019-03-31T11:11:28.733Z,51.97
2019-03-31T11:12:28.724Z,50.80
2019-03-31T11:13:28.713Z,51.61
2019-03-31T11:14:28.739Z,49.43
2019-03-31T11:15:28.691Z,48.16
2019-03-31T11:16:28.681Z,48.82
2019-03-31T11:17:28.671Z,48.92
2019-03-31T11:18:28.658Z,47.92
2019-03-31T11:19:28.647Z,47.01
2019-03-31T11:20:28.674Z,46.45
2019-03-31T11:21:28.627Z,43.14
2019-03-31T11:22:28.622Z,41.93
2019-03-31T11:23:28.605Z,38.70
2019-03-31T11:24:28.594Z,38.96
2019-03-31T11:25:29.413Z,40.09
2019-03-31T11:26:28.576Z,42.35
2019-03-31T11:27:28.564Z,42.23
2019-03-31T11:28:28.552Z,42.27
2019-03-31T11:29:28.541Z,42.43
2019-03-31T11:30:28.556Z,43.59
2019-03-31T11:31:29.419Z,42.13
2019-03-31T11:32:28.509Z,42.98
2019-03-31T11:33:28.496Z,43.84
2019-03-31T11:34:28.486Z,44.26
2019-03-31T11:35:43.421Z,45.17
2019-03-31T11:36:28.463Z,45.37
2019-03-31T11:37:28.452Z,46.41
2019-03-31T11:38:28.442Z,46.82
2019-03-31T11:39:28.432Z,46.33
2019-03-31T11:40:28.419Z,46.94
2019-03-31T11:41:28.446Z,46.92
2019-03-31T11:42:28.398Z,46.01
2019-03-31T11:43:28.386Z,45.50
2019-03-31T11:44:28.478Z,43.67
2019-03-31T11:45:28.364Z,43.08
2019-03-31T11:46:28.366Z,44.42
2019-03-31T11:47:28.366Z,43.61
2019-03-31T11:48:28.331Z,42.92
2019-03-31T11:49:28.320Z,43.73
2019-03-31T11:50:28.310Z,44.04
2019-03-31T11:51:28.296Z,41.56
2019-03-31T11:52:28.319Z,39.54
2019-03-31T11:53:28.286Z,38.26
2019-03-31T11:54:28.268Z,39.42
2019-03-31T11:55:28.255Z,38.75
2019-03-31T11:56:28.246Z,36.74
2019-03-31T11:57:28.268Z,35.90
2019-03-31T11:58:28.223Z,36.61
2019-03-31T11:59:28.211Z,36.05
2019-03-31T12:00:28.204Z,37.70
2019-03-31T12:01:28.189Z,36.94
2019-03-31T12:02:28.188Z,35.57
2019-03-31T12:03:30.929Z,34.32
2019-03-31T12:04:28.159Z,35.39
2019-03-31T12:05:28.151Z,34.00
2019-03-31T12:06:28.139Z,35.77
2019-03-31T12:07:28.697Z,36.43
2019-03-31T12:08:28.120Z,36.65
2019-03-31T12:09:28.145Z,37.89
2019-03-31T12:10:28.093Z,36.29
2019-03-31T12:11:28.084Z,35.55
2019-03-31T12:12:28.074Z,35.95
2019-03-31T12:13:28.065Z,34.37
2019-03-31T12:14:28.051Z,33.31
2019-03-31T12:15:28.067Z,35.10
2019-03-31T12:16:28.033Z,34.88
2019-03-31T12:17:28.022Z,33.28
2019-03-31T12:18:28.011Z,32.15
2019-03-31T12:19:27.997Z,30.40
2019-03-31T12:20:28.021Z,27.29
2019-03-31T12:21:27.979Z,27.99
2019-03-31T12:22:27.967Z,28.58
2019-03-31T12:23:27.954Z,28.46
2019-03-31T12:24:27.944Z,27.85
2019-03-31T12:25:27.963Z,27.51
2019-03-31T12:26:27.924Z,26.89
2019-03-31T12:27:27.915Z,26.27
2019-03-31T12:28:27.903Z,26.26
2019-03-31T12:29:27.894Z,25.52
2019-03-31T12:30:27.906Z,24.84
2019-03-31T12:31:27.870Z,25.45
2019-03-31T12:32:27.860Z,26.47
2019-03-31T12:33:27.849Z,27.14
2019-03-31T12:34:27.850Z,27.65
2019-03-31T12:35:27.864Z,28.58
2019-03-31T12:36:27.818Z,29.61
2019-03-31T12:37:41.257Z,29.12
2019-03-31T12:38:28.796Z,28.08
2019-03-31T12:39:27.786Z,27.01
2019-03-31T12:40:27.774Z,27.55
2019-03-31T12:41:27.836Z,28.79
2019-03-31T12:42:27.752Z,28.69
2019-03-31T12:43:27.744Z,28.70
2019-03-31T12:44:27.740Z,29.33
2019-03-31T12:45:27.724Z,29.21
2019-03-31T12:46:27.713Z,27.83
2019-03-31T12:47:27.729Z,26.61
2019-03-31T12:48:27.691Z,25.12
2019-03-31T12:49:27.680Z,28.00
2019-03-31T12:50:27.674Z,28.76
2019-03-31T12:51:27.660Z,29.49
2019-03-31T12:52:27.678Z,29.22